sensor_id;sensor_type;location;lat;lon;timestamp;temperature;humidity
68251;DHT22;55066;51.560;4.642;2023-04-25T00:01:13;6.06;95.54
68251;DHT22;55066;51.560;4.642;2023-04-25T00:03:40;5.97;95.28
68251;DHT22;55066;51.560;4.642;2023-04-25T00:06:06;6.10;95.48
68251;DHT22;55066;51.560;4.642;2023-04-25T00:08:32;5.91;95.25
68251;DHT22;55066;51.560;4.642;2023-04-25T00:10:58;5.83;95.49
68251;DHT22;55066;51.560;4.642;2023-04-25T00:13:25;5.77;95.61
68251;DHT22;55066;51.560;4.642;2023-04-25T00:15:55;5.73;95.63
68251;DHT22;55066;51.560;4.642;2023-04-25T00:18:31;5.73;95.67
68251;DHT22;55066;51.560;4.642;2023-04-25T00:20:58;5.71;95.53
68251;DHT22;55066;51.560;4.642;2023-04-25T00:23:25;5.67;95.58
68251;DHT22;55066;51.560;4.642;2023-04-25T00:25:51;5.66;95.62
68251;DHT22;55066;51.560;4.642;2023-04-25T00:28:17;5.60;95.57
68251;DHT22;55066;51.560;4.642;2023-04-25T00:30:44;5.63;95.66
68251;DHT22;55066;51.560;4.642;2023-04-25T00:33:09;5.52;95.60
68251;DHT22;55066;51.560;4.642;2023-04-25T00:35:37;5.52;95.66
68251;DHT22;55066;51.560;4.642;2023-04-25T00:38:04;5.55;95.54
68251;DHT22;55066;51.560;4.642;2023-04-25T00:40:29;5.58;95.38
68251;DHT22;55066;51.560;4.642;2023-04-25T00:42:55;5.53;95.30
68251;DHT22;55066;51.560;4.642;2023-04-25T00:45:21;5.55;95.11
68251;DHT22;55066;51.560;4.642;2023-04-25T00:47:46;5.58;95.00
68251;DHT22;55066;51.560;4.642;2023-04-25T00:50:13;5.56;94.87
68251;DHT22;55066;51.560;4.642;2023-04-25T00:52:43;5.62;94.76
68251;DHT22;55066;51.560;4.642;2023-04-25T00:55:10;5.76;94.42
68251;DHT22;55066;51.560;4.642;2023-04-25T00:57:37;5.89;93.83
68251;DHT22;55066;51.560;4.642;2023-04-25T01:00:06;6.01;93.49
68251;DHT22;55066;51.560;4.642;2023-04-25T01:02:33;5.98;93.45
68251;DHT22;55066;51.560;4.642;2023-04-25T01:05:00;6.00;93.42
68251;DHT22;55066;51.560;4.642;2023-04-25T01:07:26;6.07;93.63
68251;DHT22;55066;51.560;4.642;2023-04-25T01:09:53;6.01;96.18
68251;DHT22;55066;51.560;4.642;2023-04-25T01:12:19;5.96;94.16
68251;DHT22;55066;51.560;4.642;2023-04-25T01:14:46;5.79;96.95
68251;DHT22;55066;51.560;4.642;2023-04-25T01:17:12;5.80;95.11
68251;DHT22;55066;51.560;4.642;2023-04-25T01:19:41;5.94;95.38
68251;DHT22;55066;51.560;4.642;2023-04-25T01:22:09;5.81;95.09
68251;DHT22;55066;51.560;4.642;2023-04-25T01:24:37;5.74;96.46
68251;DHT22;55066;51.560;4.642;2023-04-25T01:27:04;5.63;97.16
68251;DHT22;55066;51.560;4.642;2023-04-25T01:29:30;5.62;95.86
68251;DHT22;55066;51.560;4.642;2023-04-25T01:31:57;5.62;96.34
68251;DHT22;55066;51.560;4.642;2023-04-25T01:34:25;5.67;95.45
68251;DHT22;55066;51.560;4.642;2023-04-25T01:36:52;5.73;97.01
68251;DHT22;55066;51.560;4.642;2023-04-25T01:39:18;5.69;96.22
68251;DHT22;55066;51.560;4.642;2023-04-25T01:41:45;5.69;95.49
68251;DHT22;55066;51.560;4.642;2023-04-25T01:44:14;5.67;95.21
68251;DHT22;55066;51.560;4.642;2023-04-25T01:46:40;5.85;97.88
68251;DHT22;55066;51.560;4.642;2023-04-25T01:49:05;5.83;96.34
68251;DHT22;55066;51.560;4.642;2023-04-25T01:51:32;5.89;94.18
68251;DHT22;55066;51.560;4.642;2023-04-25T01:53:58;5.81;95.32
68251;DHT22;55066;51.560;4.642;2023-04-25T01:56:25;5.77;94.49
68251;DHT22;55066;51.560;4.642;2023-04-25T01:58:54;5.81;94.57
68251;DHT22;55066;51.560;4.642;2023-04-25T02:01:40;5.73;94.68
68251;DHT22;55066;51.560;4.642;2023-04-25T02:04:17;5.67;96.23
68251;DHT22;55066;51.560;4.642;2023-04-25T02:06:44;5.71;95.05
68251;DHT22;55066;51.560;4.642;2023-04-25T02:09:12;5.76;96.14
68251;DHT22;55066;51.560;4.642;2023-04-25T02:11:44;5.80;94.67
68251;DHT22;55066;51.560;4.642;2023-04-25T02:14:34;5.66;94.50
68251;DHT22;55066;51.560;4.642;2023-04-25T02:17:04;5.86;96.34
68251;DHT22;55066;51.560;4.642;2023-04-25T02:19:31;6.04;95.88
68251;DHT22;55066;51.560;4.642;2023-04-25T02:21:56;5.96;96.75
68251;DHT22;55066;51.560;4.642;2023-04-25T02:24:24;6.32;92.56
68251;DHT22;55066;51.560;4.642;2023-04-25T02:26:49;6.18;95.30
68251;DHT22;55066;51.560;4.642;2023-04-25T02:29:15;6.28;92.86
68251;DHT22;55066;51.560;4.642;2023-04-25T02:31:41;6.14;93.62
68251;DHT22;55066;51.560;4.642;2023-04-25T02:34:10;6.17;96.45
68251;DHT22;55066;51.560;4.642;2023-04-25T02:36:37;6.10;96.37
68251;DHT22;55066;51.560;4.642;2023-04-25T02:39:03;6.18;92.81
68251;DHT22;55066;51.560;4.642;2023-04-25T02:41:29;6.08;92.87
68251;DHT22;55066;51.560;4.642;2023-04-25T02:43:55;6.03;93.78
68251;DHT22;55066;51.560;4.642;2023-04-25T02:46:22;6.11;92.81
68251;DHT22;55066;51.560;4.642;2023-04-25T02:48:47;6.17;91.96
68251;DHT22;55066;51.560;4.642;2023-04-25T02:51:14;6.11;94.44
68251;DHT22;55066;51.560;4.642;2023-04-25T02:53:43;6.13;92.53
68251;DHT22;55066;51.560;4.642;2023-04-25T02:56:09;6.14;92.77
68251;DHT22;55066;51.560;4.642;2023-04-25T02:58:35;6.11;93.32
68251;DHT22;55066;51.560;4.642;2023-04-25T03:01:00;6.22;94.21
68251;DHT22;55066;51.560;4.642;2023-04-25T03:03:26;6.25;93.57
68251;DHT22;55066;51.560;4.642;2023-04-25T03:05:52;6.21;92.36
68251;DHT22;55066;51.560;4.642;2023-04-25T03:08:23;6.17;92.69
68251;DHT22;55066;51.560;4.642;2023-04-25T03:10:50;6.22;92.32
68251;DHT22;55066;51.560;4.642;2023-04-25T03:13:17;6.21;92.25
68251;DHT22;55066;51.560;4.642;2023-04-25T03:15:43;6.14;92.38
68251;DHT22;55066;51.560;4.642;2023-04-25T03:18:10;6.07;95.00
68251;DHT22;55066;51.560;4.642;2023-04-25T03:20:40;6.03;93.76
68251;DHT22;55066;51.560;4.642;2023-04-25T03:23:08;6.14;92.89
68251;DHT22;55066;51.560;4.642;2023-04-25T03:25:35;6.18;92.16
68251;DHT22;55066;51.560;4.642;2023-04-25T03:28:00;6.24;91.62
68251;DHT22;55066;51.560;4.642;2023-04-25T03:30:26;6.21;91.77
68251;DHT22;55066;51.560;4.642;2023-04-25T03:32:52;6.29;91.46
68251;DHT22;55066;51.560;4.642;2023-04-25T03:35:18;6.32;91.59
68251;DHT22;55066;51.560;4.642;2023-04-25T03:37:44;6.38;91.22
68251;DHT22;55066;51.560;4.642;2023-04-25T03:40:17;6.38;92.28
68251;DHT22;55066;51.560;4.642;2023-04-25T03:43:06;6.50;90.82
68251;DHT22;55066;51.560;4.642;2023-04-25T03:45:35;6.39;91.38
68251;DHT22;55066;51.560;4.642;2023-04-25T03:48:00;6.31;91.20
68251;DHT22;55066;51.560;4.642;2023-04-25T03:50:27;6.34;91.60
68251;DHT22;55066;51.560;4.642;2023-04-25T03:52:53;6.27;91.45
68251;DHT22;55066;51.560;4.642;2023-04-25T03:55:20;6.28;91.93
68251;DHT22;55066;51.560;4.642;2023-04-25T03:57:46;6.34;91.53
68251;DHT22;55066;51.560;4.642;2023-04-25T04:00:16;6.34;91.10
68251;DHT22;55066;51.560;4.642;2023-04-25T04:02:41;6.36;92.40
68251;DHT22;55066;51.560;4.642;2023-04-25T04:05:09;6.50;91.22
68251;DHT22;55066;51.560;4.642;2023-04-25T04:07:40;6.41;92.92
68251;DHT22;55066;51.560;4.642;2023-04-25T04:10:09;6.20;92.17
68251;DHT22;55066;51.560;4.642;2023-04-25T04:12:38;5.98;95.72
68251;DHT22;55066;51.560;4.642;2023-04-25T04:15:04;5.90;94.30
68251;DHT22;55066;51.560;4.642;2023-04-25T04:17:33;5.86;93.51
68251;DHT22;55066;51.560;4.642;2023-04-25T04:19:59;5.71;93.65
68251;DHT22;55066;51.560;4.642;2023-04-25T04:22:30;5.70;93.47
68251;DHT22;55066;51.560;4.642;2023-04-25T04:25:00;5.52;94.42
68251;DHT22;55066;51.560;4.642;2023-04-25T04:28:01;5.38;93.97
68251;DHT22;55066;51.560;4.642;2023-04-25T04:30:35;5.38;94.11
68251;DHT22;55066;51.560;4.642;2023-04-25T04:33:11;5.51;93.83
68251;DHT22;55066;51.560;4.642;2023-04-25T04:35:37;5.55;93.47
68251;DHT22;55066;51.560;4.642;2023-04-25T04:38:03;5.59;93.44
68251;DHT22;55066;51.560;4.642;2023-04-25T04:40:32;5.70;92.75
68251;DHT22;55066;51.560;4.642;2023-04-25T04:43:07;5.76;92.82
68251;DHT22;55066;51.560;4.642;2023-04-25T04:45:52;5.86;92.23
68251;DHT22;55066;51.560;4.642;2023-04-25T04:48:39;5.87;92.36
68251;DHT22;55066;51.560;4.642;2023-04-25T04:51:35;5.79;93.09
68251;DHT22;55066;51.560;4.642;2023-04-25T04:54:11;5.80;92.44
68251;DHT22;55066;51.560;4.642;2023-04-25T04:56:58;5.87;91.92
68251;DHT22;55066;51.560;4.642;2023-04-25T04:59:49;5.90;92.39
68251;DHT22;55066;51.560;4.642;2023-04-25T05:02:35;5.94;92.43
68251;DHT22;55066;51.560;4.642;2023-04-25T05:05:22;6.00;91.95
68251;DHT22;55066;51.560;4.642;2023-04-25T05:08:22;6.11;91.31
68251;DHT22;55066;51.560;4.642;2023-04-25T05:10:59;6.08;94.07
68251;DHT22;55066;51.560;4.642;2023-04-25T05:13:50;6.16;92.92
68251;DHT22;55066;51.560;4.642;2023-04-25T05:16:35;6.29;93.80
68251;DHT22;55066;51.560;4.642;2023-04-25T05:19:32;6.42;92.73
68251;DHT22;55066;51.560;4.642;2023-04-25T05:22:13;6.41;93.73
68251;DHT22;55066;51.560;4.642;2023-04-25T05:24:54;6.22;98.11
68251;DHT22;55066;51.560;4.642;2023-04-25T05:27:35;6.20;92.88
68251;DHT22;55066;51.560;4.642;2023-04-25T05:30:19;6.21;91.35
68251;DHT22;55066;51.560;4.642;2023-04-25T05:32:58;6.24;91.09
68251;DHT22;55066;51.560;4.642;2023-04-25T05:35:25;6.32;91.02
68251;DHT22;55066;51.560;4.642;2023-04-25T05:37:50;6.41;89.43
68251;DHT22;55066;51.560;4.642;2023-04-25T05:40:23;6.20;89.83
68251;DHT22;55066;51.560;4.642;2023-04-25T05:42:56;6.20;89.95
68251;DHT22;55066;51.560;4.642;2023-04-25T05:45:28;6.16;90.40
68251;DHT22;55066;51.560;4.642;2023-04-25T05:48:06;6.16;90.81
68251;DHT22;55066;51.560;4.642;2023-04-25T05:50:54;6.22;90.53
68251;DHT22;55066;51.560;4.642;2023-04-25T05:53:43;6.21;90.62
68251;DHT22;55066;51.560;4.642;2023-04-25T05:56:08;6.17;90.79
68251;DHT22;55066;51.560;4.642;2023-04-25T05:58:36;6.07;90.79
68251;DHT22;55066;51.560;4.642;2023-04-25T06:01:02;6.06;91.03
68251;DHT22;55066;51.560;4.642;2023-04-25T06:03:28;6.16;91.04
68251;DHT22;55066;51.560;4.642;2023-04-25T06:05:57;6.34;90.49
68251;DHT22;55066;51.560;4.642;2023-04-25T06:08:25;6.41;90.15
68251;DHT22;55066;51.560;4.642;2023-04-25T06:10:52;6.77;89.57
68251;DHT22;55066;51.560;4.642;2023-04-25T06:13:18;7.08;88.37
68251;DHT22;55066;51.560;4.642;2023-04-25T06:15:45;7.12;88.29
68251;DHT22;55066;51.560;4.642;2023-04-25T06:18:11;7.00;88.46
68251;DHT22;55066;51.560;4.642;2023-04-25T06:20:41;7.05;88.72
68251;DHT22;55066;51.560;4.642;2023-04-25T06:23:09;7.17;87.87
68251;DHT22;55066;51.560;4.642;2023-04-25T06:26:01;7.22;87.46
68251;DHT22;55066;51.560;4.642;2023-04-25T06:28:42;7.28;87.34
68251;DHT22;55066;51.560;4.642;2023-04-25T06:31:08;7.34;87.35
68251;DHT22;55066;51.560;4.642;2023-04-25T06:33:34;7.29;87.36
68251;DHT22;55066;51.560;4.642;2023-04-25T06:36:01;7.45;86.80
68251;DHT22;55066;51.560;4.642;2023-04-25T06:38:28;7.51;85.71
68251;DHT22;55066;51.560;4.642;2023-04-25T06:40:57;7.61;85.75
68251;DHT22;55066;51.560;4.642;2023-04-25T06:43:24;7.52;86.45
68251;DHT22;55066;51.560;4.642;2023-04-25T06:46:16;7.47;86.93
68251;DHT22;55066;51.560;4.642;2023-04-25T06:48:44;7.55;87.05
68251;DHT22;55066;51.560;4.642;2023-04-25T06:51:10;7.82;86.19
68251;DHT22;55066;51.560;4.642;2023-04-25T06:53:38;7.85;86.50
68251;DHT22;55066;51.560;4.642;2023-04-25T06:56:06;8.01;86.24
68251;DHT22;55066;51.560;4.642;2023-04-25T06:58:43;8.38;85.76
68251;DHT22;55066;51.560;4.642;2023-04-25T07:01:12;8.48;85.56
68251;DHT22;55066;51.560;4.642;2023-04-25T07:03:38;8.69;84.86
68251;DHT22;55066;51.560;4.642;2023-04-25T07:06:07;9.10;84.61
68251;DHT22;55066;51.560;4.642;2023-04-25T07:08:33;9.17;82.97
68251;DHT22;55066;51.560;4.642;2023-04-25T07:11:00;8.89;85.02
68251;DHT22;55066;51.560;4.642;2023-04-25T07:13:25;9.01;83.51
68251;DHT22;55066;51.560;4.642;2023-04-25T07:15:51;9.44;82.50
68251;DHT22;55066;51.560;4.642;2023-04-25T07:18:20;9.41;83.59
68251;DHT22;55066;51.560;4.642;2023-04-25T07:20:46;9.16;83.56
68251;DHT22;55066;51.560;4.642;2023-04-25T07:23:12;9.35;82.30
68251;DHT22;55066;51.560;4.642;2023-04-25T07:25:39;9.69;81.89
68251;DHT22;55066;51.560;4.642;2023-04-25T07:28:06;9.13;82.44
68251;DHT22;55066;51.560;4.642;2023-04-25T07:30:33;8.18;84.49
68251;DHT22;55066;51.560;4.642;2023-04-25T07:33:03;7.93;87.67
68251;DHT22;55066;51.560;4.642;2023-04-25T07:35:29;7.56;88.43
68251;DHT22;55066;51.560;4.642;2023-04-25T07:37:55;7.63;88.68
68251;DHT22;55066;51.560;4.642;2023-04-25T07:40:24;7.65;88.28
68251;DHT22;55066;51.560;4.642;2023-04-25T07:42:56;7.67;88.33
68251;DHT22;55066;51.560;4.642;2023-04-25T07:45:35;7.52;87.40
68251;DHT22;55066;51.560;4.642;2023-04-25T07:48:03;7.38;88.06
68251;DHT22;55066;51.560;4.642;2023-04-25T07:50:30;7.49;87.97
68251;DHT22;55066;51.560;4.642;2023-04-25T07:52:56;7.96;87.95
68251;DHT22;55066;51.560;4.642;2023-04-25T07:55:30;8.34;86.23
68251;DHT22;55066;51.560;4.642;2023-04-25T07:58:15;8.49;84.53
68251;DHT22;55066;51.560;4.642;2023-04-25T08:00:43;8.79;85.89
68251;DHT22;55066;51.560;4.642;2023-04-25T08:03:25;8.87;83.88
68251;DHT22;55066;51.560;4.642;2023-04-25T08:05:52;8.90;85.51
68251;DHT22;55066;51.560;4.642;2023-04-25T08:08:18;9.28;86.27
68251;DHT22;55066;51.560;4.642;2023-04-25T08:10:45;9.71;84.62
68251;DHT22;55066;51.560;4.642;2023-04-25T08:13:12;9.79;85.68
68251;DHT22;55066;51.560;4.642;2023-04-25T08:15:39;9.06;80.45
68251;DHT22;55066;51.560;4.642;2023-04-25T08:18:06;9.31;83.38
68251;DHT22;55066;51.560;4.642;2023-04-25T08:20:33;9.55;80.27
68251;DHT22;55066;51.560;4.642;2023-04-25T08:23:01;9.56;81.12
68251;DHT22;55066;51.560;4.642;2023-04-25T08:25:59;10.28;82.15
68251;DHT22;55066;51.560;4.642;2023-04-25T08:28:27;10.09;81.34
68251;DHT22;55066;51.560;4.642;2023-04-25T08:30:54;9.66;81.33
68251;DHT22;55066;51.560;4.642;2023-04-25T08:33:20;9.89;81.05
68251;DHT22;55066;51.560;4.642;2023-04-25T08:35:58;9.97;82.52
68251;DHT22;55066;51.560;4.642;2023-04-25T08:38:24;9.94;79.15
68251;DHT22;55066;51.560;4.642;2023-04-25T08:40:50;9.69;78.11
68251;DHT22;55066;51.560;4.642;2023-04-25T08:43:24;10.14;80.09
68251;DHT22;55066;51.560;4.642;2023-04-25T08:45:52;10.34;80.55
68251;DHT22;55066;51.560;4.642;2023-04-25T08:48:33;10.80;78.82
68251;DHT22;55066;51.560;4.642;2023-04-25T08:51:07;10.20;77.22
68251;DHT22;55066;51.560;4.642;2023-04-25T08:53:33;11.61;87.13
68251;DHT22;55066;51.560;4.642;2023-04-25T08:56:01;11.37;73.58
68251;DHT22;55066;51.560;4.642;2023-04-25T08:58:28;11.61;82.56
68251;DHT22;55066;51.560;4.642;2023-04-25T09:00:55;11.44;79.69
68251;DHT22;55066;51.560;4.642;2023-04-25T09:03:24;12.37;86.26
68251;DHT22;55066;51.560;4.642;2023-04-25T09:05:56;12.92;83.18
68251;DHT22;55066;51.560;4.642;2023-04-25T09:08:21;11.72;71.89
68251;DHT22;55066;51.560;4.642;2023-04-25T09:10:47;10.79;73.50
68251;DHT22;55066;51.560;4.642;2023-04-25T09:13:17;10.41;76.49
68251;DHT22;55066;51.560;4.642;2023-04-25T09:16:07;11.82;79.78
68251;DHT22;55066;51.560;4.642;2023-04-25T09:18:52;10.83;74.73
68251;DHT22;55066;51.560;4.642;2023-04-25T09:21:22;11.14;80.85
68251;DHT22;55066;51.560;4.642;2023-04-25T09:24:05;11.44;83.07
68251;DHT22;55066;51.560;4.642;2023-04-25T09:26:37;11.82;82.00
68251;DHT22;55066;51.560;4.642;2023-04-25T09:29:06;12.10;86.33
68251;DHT22;55066;51.560;4.642;2023-04-25T09:31:33;12.77;84.47
68251;DHT22;55066;51.560;4.642;2023-04-25T09:34:02;12.65;82.94
68251;DHT22;55066;51.560;4.642;2023-04-25T09:36:30;13.42;82.20
68251;DHT22;55066;51.560;4.642;2023-04-25T09:39:16;12.71;76.49
68251;DHT22;55066;51.560;4.642;2023-04-25T09:41:46;12.62;78.12
68251;DHT22;55066;51.560;4.642;2023-04-25T09:44:14;12.96;82.41
68251;DHT22;55066;51.560;4.642;2023-04-25T09:46:49;12.75;77.27
68251;DHT22;55066;51.560;4.642;2023-04-25T09:49:20;12.51;74.54
68251;DHT22;55066;51.560;4.642;2023-04-25T09:52:06;12.92;78.87
68251;DHT22;55066;51.560;4.642;2023-04-25T09:54:51;12.57;76.49
68251;DHT22;55066;51.560;4.642;2023-04-25T09:57:24;12.20;77.69
68251;DHT22;55066;51.560;4.642;2023-04-25T09:59:55;12.27;80.40
68251;DHT22;55066;51.560;4.642;2023-04-25T10:02:26;12.61;80.37
68251;DHT22;55066;51.560;4.642;2023-04-25T10:04:58;12.41;77.59
68251;DHT22;55066;51.560;4.642;2023-04-25T10:07:33;11.69;78.14
68251;DHT22;55066;51.560;4.642;2023-04-25T10:10:08;11.83;75.83
68251;DHT22;55066;51.560;4.642;2023-04-25T10:12:34;12.72;81.30
68251;DHT22;55066;51.560;4.642;2023-04-25T10:15:00;12.71;76.57
68251;DHT22;55066;51.560;4.642;2023-04-25T10:17:26;12.47;76.68
68251;DHT22;55066;51.560;4.642;2023-04-25T10:19:54;13.18;78.60
68251;DHT22;55066;51.560;4.642;2023-04-25T10:22:42;13.15;73.98
68251;DHT22;55066;51.560;4.642;2023-04-25T10:25:11;12.00;70.42
68251;DHT22;55066;51.560;4.642;2023-04-25T10:27:36;12.24;73.97
68251;DHT22;55066;51.560;4.642;2023-04-25T10:30:04;12.30;71.68
68251;DHT22;55066;51.560;4.642;2023-04-25T10:32:31;13.43;74.79
68251;DHT22;55066;51.560;4.642;2023-04-25T10:35:12;13.67;77.41
68251;DHT22;55066;51.560;4.642;2023-04-25T10:37:59;13.75;76.05
68251;DHT22;55066;51.560;4.642;2023-04-25T10:40:25;13.27;71.08
68251;DHT22;55066;51.560;4.642;2023-04-25T10:42:54;13.50;73.71
68251;DHT22;55066;51.560;4.642;2023-04-25T10:45:21;13.03;71.29
68251;DHT22;55066;51.560;4.642;2023-04-25T10:47:49;13.88;79.21
68251;DHT22;55066;51.560;4.642;2023-04-25T10:50:15;14.16;79.47
68251;DHT22;55066;51.560;4.642;2023-04-25T10:52:44;14.56;78.12
68251;DHT22;55066;51.560;4.642;2023-04-25T10:55:11;14.36;79.26
68251;DHT22;55066;51.560;4.642;2023-04-25T10:57:45;14.33;76.92
68251;DHT22;55066;51.560;4.642;2023-04-25T11:00:14;13.97;74.18
68251;DHT22;55066;51.560;4.642;2023-04-25T11:02:53;14.20;75.88
68251;DHT22;55066;51.560;4.642;2023-04-25T11:05:32;14.34;71.03
68251;DHT22;55066;51.560;4.642;2023-04-25T11:08:08;14.83;77.31
68251;DHT22;55066;51.560;4.642;2023-04-25T11:10:36;14.63;75.35
68251;DHT22;55066;51.560;4.642;2023-04-25T11:13:01;14.50;75.17
68251;DHT22;55066;51.560;4.642;2023-04-25T11:15:28;14.57;70.21
68251;DHT22;55066;51.560;4.642;2023-04-25T11:17:54;14.41;71.49
68251;DHT22;55066;51.560;4.642;2023-04-25T11:20:21;14.78;75.94
68251;DHT22;55066;51.560;4.642;2023-04-25T11:22:47;14.16;65.31
68251;DHT22;55066;51.560;4.642;2023-04-25T11:25:15;14.57;77.38
68251;DHT22;55066;51.560;4.642;2023-04-25T11:27:58;14.60;74.61
68251;DHT22;55066;51.560;4.642;2023-04-25T11:30:26;14.77;72.91
68251;DHT22;55066;51.560;4.642;2023-04-25T11:32:52;14.66;70.37
68251;DHT22;55066;51.560;4.642;2023-04-25T11:35:19;14.28;73.46
68251;DHT22;55066;51.560;4.642;2023-04-25T11:37:48;13.53;68.58
68251;DHT22;55066;51.560;4.642;2023-04-25T11:40:14;14.15;71.67
68251;DHT22;55066;51.560;4.642;2023-04-25T11:42:44;14.63;71.90
68251;DHT22;55066;51.560;4.642;2023-04-25T11:45:10;14.50;67.15
68251;DHT22;55066;51.560;4.642;2023-04-25T11:47:36;14.39;73.99
68251;DHT22;55066;51.560;4.642;2023-04-25T11:50:07;15.23;77.91
68251;DHT22;55066;51.560;4.642;2023-04-25T11:52:40;15.19;71.44
68251;DHT22;55066;51.560;4.642;2023-04-25T11:55:08;15.23;70.67
68251;DHT22;55066;51.560;4.642;2023-04-25T11:57:33;15.38;75.43
68251;DHT22;55066;51.560;4.642;2023-04-25T12:00:26;14.64;68.78
68251;DHT22;55066;51.560;4.642;2023-04-25T12:02:53;15.05;74.77
68251;DHT22;55066;51.560;4.642;2023-04-25T12:05:19;15.25;77.32
68251;DHT22;55066;51.560;4.642;2023-04-25T12:07:46;16.08;73.78
68251;DHT22;55066;51.560;4.642;2023-04-25T12:10:14;15.53;64.50
68251;DHT22;55066;51.560;4.642;2023-04-25T12:12:45;14.76;72.59
68251;DHT22;55066;51.560;4.642;2023-04-25T12:15:14;15.16;70.38
68251;DHT22;55066;51.560;4.642;2023-04-25T12:17:52;14.49;72.93
68251;DHT22;55066;51.560;4.642;2023-04-25T12:20:20;15.04;72.16
68251;DHT22;55066;51.560;4.642;2023-04-25T12:22:51;13.86;69.20
68251;DHT22;55066;51.560;4.642;2023-04-25T12:25:39;14.01;72.37
68251;DHT22;55066;51.560;4.642;2023-04-25T12:28:18;14.32;76.99
68251;DHT22;55066;51.560;4.642;2023-04-25T12:31:04;14.41;72.57
68251;DHT22;55066;51.560;4.642;2023-04-25T12:33:35;14.68;76.36
68251;DHT22;55066;51.560;4.642;2023-04-25T12:36:03;15.35;76.84
68251;DHT22;55066;51.560;4.642;2023-04-25T12:38:39;15.91;74.13
68251;DHT22;55066;51.560;4.642;2023-04-25T12:41:08;16.14;74.44
68251;DHT22;55066;51.560;4.642;2023-04-25T12:43:34;14.77;77.40
68251;DHT22;55066;51.560;4.642;2023-04-25T12:46:02;15.19;71.88
68251;DHT22;55066;51.560;4.642;2023-04-25T12:48:28;15.08;69.41
68251;DHT22;55066;51.560;4.642;2023-04-25T12:50:53;14.44;72.24
68251;DHT22;55066;51.560;4.642;2023-04-25T12:53:21;14.49;78.14
68251;DHT22;55066;51.560;4.642;2023-04-25T12:55:49;15.18;70.00
68251;DHT22;55066;51.560;4.642;2023-04-25T12:58:15;15.15;71.04
68251;DHT22;55066;51.560;4.642;2023-04-25T13:00:40;15.64;73.78
68251;DHT22;55066;51.560;4.642;2023-04-25T13:03:08;14.99;74.88
68251;DHT22;55066;51.560;4.642;2023-04-25T13:05:34;15.02;76.43
68251;DHT22;55066;51.560;4.642;2023-04-25T13:08:01;15.06;72.46
68251;DHT22;55066;51.560;4.642;2023-04-25T13:10:26;15.57;75.23
68251;DHT22;55066;51.560;4.642;2023-04-25T13:12:52;15.28;69.43
68251;DHT22;55066;51.560;4.642;2023-04-25T13:15:17;14.96;73.63
68251;DHT22;55066;51.560;4.642;2023-04-25T13:17:45;13.84;74.42
68251;DHT22;55066;51.560;4.642;2023-04-25T13:20:10;14.40;74.77
68251;DHT22;55066;51.560;4.642;2023-04-25T13:22:37;13.97;65.78
68251;DHT22;55066;51.560;4.642;2023-04-25T13:25:05;15.11;71.16
68251;DHT22;55066;51.560;4.642;2023-04-25T13:27:32;14.33;64.51
68251;DHT22;55066;51.560;4.642;2023-04-25T13:30:03;14.77;74.72
68251;DHT22;55066;51.560;4.642;2023-04-25T13:32:36;15.43;66.96
68251;DHT22;55066;51.560;4.642;2023-04-25T13:35:05;15.80;71.78
68251;DHT22;55066;51.560;4.642;2023-04-25T13:37:31;15.25;70.72
68251;DHT22;55066;51.560;4.642;2023-04-25T13:40:02;14.50;67.23
68251;DHT22;55066;51.560;4.642;2023-04-25T13:42:32;13.81;65.39
68251;DHT22;55066;51.560;4.642;2023-04-25T13:44:58;15.12;71.56
68251;DHT22;55066;51.560;4.642;2023-04-25T13:47:25;16.85;67.96
68251;DHT22;55066;51.560;4.642;2023-04-25T13:49:51;17.56;68.24
68251;DHT22;55066;51.560;4.642;2023-04-25T13:52:18;19.14;64.91
68251;DHT22;55066;51.560;4.642;2023-04-25T13:54:44;17.70;66.45
68251;DHT22;55066;51.560;4.642;2023-04-25T13:57:09;15.06;69.00
68251;DHT22;55066;51.560;4.642;2023-04-25T13:59:36;14.96;70.76
68251;DHT22;55066;51.560;4.642;2023-04-25T14:02:02;15.21;74.53
68251;DHT22;55066;51.560;4.642;2023-04-25T14:04:27;14.63;71.23
68251;DHT22;55066;51.560;4.642;2023-04-25T14:06:53;15.54;75.02
68251;DHT22;55066;51.560;4.642;2023-04-25T14:09:19;15.33;74.92
68251;DHT22;55066;51.560;4.642;2023-04-25T14:11:47;15.81;77.62
68251;DHT22;55066;51.560;4.642;2023-04-25T14:14:13;14.40;65.06
68251;DHT22;55066;51.560;4.642;2023-04-25T14:16:42;15.87;69.51
68251;DHT22;55066;51.560;4.642;2023-04-25T14:19:09;16.51;69.24
68251;DHT22;55066;51.560;4.642;2023-04-25T14:21:34;15.40;65.54
68251;DHT22;55066;51.560;4.642;2023-04-25T14:24:00;15.77;70.66
68251;DHT22;55066;51.560;4.642;2023-04-25T14:26:26;15.39;69.20
68251;DHT22;55066;51.560;4.642;2023-04-25T14:28:53;15.50;67.02
68251;DHT22;55066;51.560;4.642;2023-04-25T14:31:19;16.25;70.85
68251;DHT22;55066;51.560;4.642;2023-04-25T14:33:46;16.39;70.47
68251;DHT22;55066;51.560;4.642;2023-04-25T14:36:13;16.90;68.71
68251;DHT22;55066;51.560;4.642;2023-04-25T14:38:39;17.15;70.47
68251;DHT22;55066;51.560;4.642;2023-04-25T14:41:05;17.29;74.12
68251;DHT22;55066;51.560;4.642;2023-04-25T14:43:31;17.25;70.62
68251;DHT22;55066;51.560;4.642;2023-04-25T14:45:56;17.28;67.06
68251;DHT22;55066;51.560;4.642;2023-04-25T14:48:22;17.14;69.85
68251;DHT22;55066;51.560;4.642;2023-04-25T14:50:48;16.53;65.38
68251;DHT22;55066;51.560;4.642;2023-04-25T14:53:13;16.05;72.07
68251;DHT22;55066;51.560;4.642;2023-04-25T14:55:42;15.19;65.51
68251;DHT22;55066;51.560;4.642;2023-04-25T14:58:07;16.04;75.10
68251;DHT22;55066;51.560;4.642;2023-04-25T15:00:34;15.81;65.64
68251;DHT22;55066;51.560;4.642;2023-04-25T15:02:59;15.39;73.20
68251;DHT22;55066;51.560;4.642;2023-04-25T15:05:24;15.80;72.62
68251;DHT22;55066;51.560;4.642;2023-04-25T15:07:51;15.47;62.01
68251;DHT22;55066;51.560;4.642;2023-04-25T15:10:19;15.76;69.51
68251;DHT22;55066;51.560;4.642;2023-04-25T15:12:48;16.43;69.64
68251;DHT22;55066;51.560;4.642;2023-04-25T15:15:14;15.12;61.61
68251;DHT22;55066;51.560;4.642;2023-04-25T15:17:41;15.14;71.60
68251;DHT22;55066;51.560;4.642;2023-04-25T15:20:10;15.43;68.33
68251;DHT22;55066;51.560;4.642;2023-04-25T15:22:37;14.92;73.62
68251;DHT22;55066;51.560;4.642;2023-04-25T15:25:09;13.79;72.86
68251;DHT22;55066;51.560;4.642;2023-04-25T15:27:38;14.88;78.37
68251;DHT22;55066;51.560;4.642;2023-04-25T15:30:07;16.02;76.05
68251;DHT22;55066;51.560;4.642;2023-04-25T15:32:35;15.63;75.10
68251;DHT22;55066;51.560;4.642;2023-04-25T15:35:07;15.88;66.95
68251;DHT22;55066;51.560;4.642;2023-04-25T15:37:35;14.66;68.28
68251;DHT22;55066;51.560;4.642;2023-04-25T15:40:08;14.37;72.47
68251;DHT22;55066;51.560;4.642;2023-04-25T15:42:42;14.43;78.90
68251;DHT22;55066;51.560;4.642;2023-04-25T15:45:09;15.19;75.21
68251;DHT22;55066;51.560;4.642;2023-04-25T15:47:37;15.57;68.62
68251;DHT22;55066;51.560;4.642;2023-04-25T15:50:04;16.36;70.81
68251;DHT22;55066;51.560;4.642;2023-04-25T15:52:32;15.77;65.36
68251;DHT22;55066;51.560;4.642;2023-04-25T15:54:59;16.93;71.08
68251;DHT22;55066;51.560;4.642;2023-04-25T15:57:25;16.81;67.08